createdAt,value
2022-11-21T00:01:52.210Z,85.70
2022-11-21T00:04:23.234Z,84.30
2022-11-21T00:06:54.447Z,87.40
2022-11-21T00:09:25.333Z,80.50
2022-11-21T00:11:56.308Z,86.70
2022-11-21T00:14:27.741Z,89.50
2022-11-21T00:16:58.820Z,86.60
2022-11-21T00:19:29.730Z,73.70
2022-11-21T00:22:00.641Z,87.60
2022-11-21T00:24:31.524Z,92.10
2022-11-21T00:27:02.489Z,89.80
2022-11-21T00:29:33.534Z,85.30
2022-11-21T00:32:04.816Z,83.40
2022-11-21T00:34:35.770Z,95.40
2022-11-21T00:37:06.770Z,93.40
2022-11-21T00:39:37.687Z,90.20
2022-11-21T00:42:08.697Z,85.60
2022-11-21T00:44:39.622Z,98.30
2022-11-21T00:47:10.630Z,100.50
2022-11-21T00:49:41.538Z,89.20
2022-11-21T00:52:12.502Z,92.90
2022-11-21T00:54:43.411Z,98.40
2022-11-21T00:57:14.396Z,99.30
2022-11-21T00:59:45.822Z,96.00
2022-11-21T01:02:16.761Z,99.80
2022-11-21T01:04:47.777Z,86.60
2022-11-21T01:07:19.172Z,93.80
2022-11-21T01:09:50.224Z,90.50
2022-11-21T01:12:21.180Z,93.70
2022-11-21T01:14:52.215Z,90.50
2022-11-21T01:17:23.143Z,96.30
2022-11-21T01:19:54.314Z,97.70
2022-11-21T01:22:25.235Z,89.00
2022-11-21T01:24:56.230Z,95.40
2022-11-21T01:27:27.184Z,91.30
2022-11-21T01:29:58.517Z,107.80
2022-11-21T01:32:29.447Z,94.00
2022-11-21T01:35:00.421Z,99.40
2022-11-21T01:37:31.328Z,92.70
2022-11-21T01:40:02.281Z,105.20
2022-11-21T01:42:50.888Z,90.10
2022-11-21T01:45:55.731Z,90.00
2022-11-21T01:48:33.857Z,87.30
2022-11-21T01:51:13.920Z,95.60
2022-11-21T01:53:49.607Z,91.50
2022-11-21T01:56:20.911Z,106.30
2022-11-21T01:58:54.872Z,104.20
2022-11-21T02:01:27.700Z,94.30
2022-11-21T02:04:03.144Z,96.00
2022-11-21T02:06:37.302Z,87.70
2022-11-21T02:09:08.919Z,98.50
2022-11-21T02:11:44.698Z,110.00
2022-11-21T02:14:16.052Z,110.10
2022-11-21T02:16:47.266Z,103.70
2022-11-21T02:19:27.028Z,101.80
2022-11-21T02:22:06.475Z,93.30
2022-11-21T02:24:44.556Z,96.50
2022-11-21T02:27:16.021Z,100.60
2022-11-21T02:29:47.286Z,93.20
2022-11-21T02:32:26.310Z,94.70
2022-11-21T02:34:57.255Z,99.30
2022-11-21T02:37:28.328Z,96.40
2022-11-21T02:40:02.192Z,105.60
2022-11-21T02:42:37.897Z,92.50
2022-11-21T02:45:17.476Z,101.50
2022-11-21T02:47:51.282Z,94.30
2022-11-21T02:50:27.978Z,95.10
2022-11-21T02:52:58.982Z,91.10
2022-11-21T02:55:30.034Z,90.40
2022-11-21T02:58:04.821Z,106.80
2022-11-21T03:00:38.102Z,101.30
2022-11-21T03:03:10.078Z,109.00
2022-11-21T03:05:42.216Z,97.10
2022-11-21T03:08:13.193Z,101.40
2022-11-21T03:10:44.181Z,88.60
2022-11-21T03:13:15.132Z,96.90
2022-11-21T03:15:46.071Z,111.80
2022-11-21T03:18:17.011Z,107.70
2022-11-21T03:20:47.956Z,100.30
2022-11-21T03:23:18.892Z,102.20
2022-11-21T03:25:49.816Z,98.60
2022-11-21T03:28:20.813Z,100.60
2022-11-21T03:30:51.731Z,98.60
2022-11-21T03:33:22.716Z,107.90
2022-11-21T03:35:53.702Z,85.90
2022-11-21T03:38:24.691Z,99.10
2022-11-21T03:40:55.652Z,102.50
2022-11-21T03:43:26.714Z,104.50
2022-11-21T03:45:57.639Z,94.60
2022-11-21T03:48:28.586Z,92.70
2022-11-21T03:50:59.522Z,96.30
2022-11-21T03:53:30.497Z,106.30
2022-11-21T03:56:01.489Z,101.40
2022-11-21T03:58:32.527Z,97.10
2022-11-21T04:01:03.880Z,90.30
2022-11-21T04:03:35.162Z,94.40
2022-11-21T04:06:06.340Z,107.40
2022-11-21T04:08:37.369Z,104.90
2022-11-21T04:11:08.636Z,98.00
2022-11-21T04:13:39.700Z,98.00
2022-11-21T04:16:10.782Z,93.30
2022-11-21T04:18:41.731Z,101.50
2022-11-21T04:21:12.742Z,99.70
2022-11-21T04:23:43.679Z,100.80
2022-11-21T04:26:14.617Z,88.00
2022-11-21T04:28:45.543Z,102.70
2022-11-21T04:31:16.614Z,102.40
2022-11-21T04:33:47.571Z,96.80
2022-11-21T04:36:18.542Z,99.40
2022-11-21T04:38:49.503Z,91.80
2022-11-21T04:41:20.650Z,97.40
2022-11-21T04:43:51.603Z,106.20
2022-11-21T04:46:23.005Z,102.50
2022-11-21T04:48:53.990Z,96.50
2022-11-21T04:51:24.969Z,102.80
2022-11-21T04:53:55.882Z,95.40
2022-11-21T04:56:26.901Z,101.90
2022-11-21T04:58:57.918Z,96.10
2022-11-21T05:01:29.103Z,97.60
2022-11-21T05:04:00.138Z,96.20
2022-11-21T05:06:31.153Z,98.40
2022-11-21T05:09:02.971Z,105.50
2022-11-21T05:11:52.061Z,107.30
2022-11-21T05:14:26.598Z,120.20
2022-11-21T05:16:57.900Z,102.20
2022-11-21T05:19:28.947Z,112.10
2022-11-21T05:22:01.743Z,106.50
2022-11-21T05:24:32.715Z,103.20
2022-11-21T05:27:06.612Z,87.20
2022-11-21T05:29:37.614Z,98.50
2022-11-21T05:32:08.724Z,100.50
2022-11-21T05:34:39.681Z,87.20
2022-11-21T05:37:11.747Z,101.00
2022-11-21T05:39:43.485Z,83.70
2022-11-21T05:42:15.116Z,92.30
2022-11-21T05:44:46.756Z,92.40
2022-11-21T05:47:17.727Z,92.80
2022-11-21T05:49:48.683Z,85.00
2022-11-21T05:52:20.789Z,96.30
2022-11-21T05:54:51.831Z,103.90
2022-11-21T05:57:26.157Z,100.10
2022-11-21T05:59:58.737Z,89.50
2022-11-21T06:02:47.467Z,99.00
2022-11-21T06:05:18.744Z,86.50
2022-11-21T06:07:49.733Z,96.10
2022-11-21T06:10:21.201Z,139.40
2022-11-21T06:12:53.324Z,100.30
2022-11-21T06:15:24.437Z,94.70
2022-11-21T06:17:55.742Z,93.00
2022-11-21T06:20:26.725Z,100.90
2022-11-21T06:23:00.723Z,88.70
2022-11-21T06:25:31.640Z,98.90
2022-11-21T06:28:04.604Z,99.70
2022-11-21T06:30:36.047Z,108.30
2022-11-21T06:33:07.720Z,102.40
2022-11-21T06:35:41.023Z,101.10
2022-11-21T06:38:13.914Z,108.60
2022-11-21T06:40:45.352Z,113.40
2022-11-21T06:43:17.066Z,95.60
2022-11-21T06:45:48.304Z,106.00
2022-11-21T06:48:19.773Z,93.80
2022-11-21T06:50:50.845Z,97.00
2022-11-21T06:53:22.233Z,90.10
2022-11-21T06:55:53.655Z,98.20
2022-11-21T06:58:25.247Z,97.90
2022-11-21T07:00:56.447Z,90.80
2022-11-21T07:03:27.699Z,96.50
2022-11-21T07:06:01.808Z,94.80
2022-11-21T07:08:35.787Z,89.40
2022-11-21T07:11:25.457Z,83.70
2022-11-21T07:13:56.884Z,85.30
2022-11-21T07:16:31.925Z,85.00
2022-11-21T07:19:02.994Z,84.30
2022-11-21T07:21:34.562Z,83.90
2022-11-21T07:24:06.725Z,80.40
2022-11-21T07:26:37.930Z,80.50
2022-11-21T07:29:09.583Z,79.50
2022-11-21T07:31:40.620Z,82.90
2022-11-21T07:34:11.723Z,77.50
2022-11-21T07:36:42.740Z,76.50
2022-11-21T07:39:14.109Z,74.80
2022-11-21T07:41:45.309Z,67.70
2022-11-21T07:44:16.358Z,88.10
2022-11-21T07:46:50.866Z,73.10
2022-11-21T07:49:21.861Z,67.20
2022-11-21T07:51:52.842Z,69.10
2022-11-21T07:54:23.978Z,70.10
2022-11-21T07:56:55.486Z,69.50
2022-11-21T07:59:26.860Z,69.20
2022-11-21T08:01:58.595Z,69.70
2022-11-21T08:04:30.951Z,68.10
2022-11-21T08:07:02.276Z,60.40
2022-11-21T08:09:38.649Z,62.00
2022-11-21T08:12:12.086Z,57.60
2022-11-21T08:14:43.411Z,58.50
2022-11-21T08:17:14.959Z,54.50
2022-11-21T08:19:45.882Z,52.50
2022-11-21T08:22:17.524Z,54.20
2022-11-21T08:24:48.611Z,52.00
2022-11-21T08:27:21.978Z,52.60
2022-11-21T08:29:53.184Z,46.50
2022-11-21T08:32:24.289Z,49.20
2022-11-21T08:34:55.241Z,45.10
2022-11-21T08:37:27.798Z,48.40
2022-11-21T08:40:00.834Z,45.70
2022-11-21T08:42:32.232Z,50.20
2022-11-21T08:45:03.474Z,48.40
2022-11-21T08:47:36.634Z,52.50
2022-11-21T08:50:09.649Z,45.70
2022-11-21T08:52:40.986Z,49.70
2022-11-21T08:55:12.784Z,45.50
2022-11-21T08:57:44.339Z,46.10
2022-11-21T09:00:17.706Z,47.60
2022-11-21T09:02:48.778Z,49.30
2022-11-21T09:05:20.632Z,41.90
2022-11-21T09:07:56.564Z,45.70
2022-11-21T09:10:29.120Z,46.20
2022-11-21T09:13:02.535Z,45.20
2022-11-21T09:15:51.289Z,50.50
2022-11-21T09:18:22.745Z,46.60
2022-11-21T09:20:54.021Z,46.00
2022-11-21T09:23:25.183Z,44.30
2022-11-21T09:25:56.256Z,52.60
2022-11-21T09:28:27.558Z,45.30
2022-11-21T09:30:59.184Z,40.00
2022-11-21T09:33:30.384Z,46.90
2022-11-21T09:36:02.819Z,47.10
2022-11-21T09:38:33.774Z,44.50
2022-11-21T09:41:32.052Z,44.50
2022-11-21T09:44:14.965Z,42.70
2022-11-21T09:46:50.282Z,44.80
2022-11-21T09:49:23.316Z,38.90
2022-11-21T09:51:55.727Z,43.90
2022-11-21T09:54:33.816Z,41.90
2022-11-21T09:57:04.914Z,51.40
2022-11-21T09:59:39.614Z,63.50
2022-11-21T10:02:17.447Z,56.60
2022-11-21T10:04:50.286Z,57.40
2022-11-21T10:07:27.086Z,55.10
2022-11-21T10:10:20.573Z,53.30
2022-11-21T10:13:10.820Z,49.20
2022-11-21T10:15:56.049Z,46.20
2022-11-21T10:19:00.860Z,65.30
2022-11-21T10:21:50.903Z,59.50
2022-11-21T10:24:49.610Z,65.60
2022-11-21T10:27:28.019Z,58.80
2022-11-21T10:30:04.422Z,54.00
2022-11-21T10:32:40.515Z,58.20
2022-11-21T10:35:21.114Z,59.80
2022-11-21T10:37:55.134Z,60.50
2022-11-21T10:40:45.734Z,56.80
2022-11-21T10:43:49.553Z,54.60
2022-11-21T10:46:20.732Z,59.10
2022-11-21T10:49:00.699Z,53.90
2022-11-21T10:51:47.194Z,63.10
2022-11-21T10:54:33.823Z,60.60
2022-11-21T10:57:14.362Z,62.80
2022-11-21T11:00:01.206Z,58.70
2022-11-21T11:02:32.352Z,50.30
2022-11-21T11:05:23.287Z,50.00
2022-11-21T11:08:06.632Z,51.90
2022-11-21T11:10:40.291Z,47.50
2022-11-21T11:13:46.404Z,50.50
2022-11-21T11:18:57.873Z,47.10
2022-11-21T11:21:32.346Z,46.70
2022-11-21T11:24:26.223Z,46.80
2022-11-21T11:27:03.136Z,52.90
2022-11-21T11:29:50.345Z,47.40
2022-11-21T11:32:22.325Z,54.30
2022-11-21T11:35:01.342Z,45.70
2022-11-21T11:37:41.109Z,49.80
2022-11-21T11:40:25.496Z,58.30
2022-11-21T11:43:32.814Z,54.60
2022-11-21T11:46:48.044Z,50.20
2022-11-21T11:49:53.164Z,53.50
2022-11-21T11:52:26.610Z,45.70
2022-11-21T11:55:03.379Z,51.70
2022-11-21T11:57:36.747Z,47.90
2022-11-21T12:00:20.829Z,55.10
2022-11-21T12:03:01.457Z,54.80
2022-11-21T12:05:35.604Z,65.20
2022-11-21T12:08:40.705Z,48.80
2022-11-21T12:11:35.159Z,51.00
2022-11-21T12:14:35.234Z,36.40
2022-11-21T12:17:10.739Z,50.80
2022-11-21T12:19:42.416Z,56.40
2022-11-21T12:22:14.011Z,54.40
2022-11-21T12:24:45.569Z,50.90
2022-11-21T12:27:27.673Z,52.40
2022-11-21T12:30:26.519Z,46.50
2022-11-21T12:33:09.285Z,56.70
2022-11-21T12:36:17.263Z,52.50
2022-11-21T12:39:04.440Z,55.60
2022-11-21T12:42:01.582Z,54.20
2022-11-21T12:44:57.819Z,51.30
2022-11-21T12:50:57.105Z,53.40
2022-11-21T12:53:55.099Z,44.50
2022-11-21T12:56:34.530Z,49.00
2022-11-21T12:59:06.211Z,53.20
2022-11-21T13:01:50.523Z,51.80
2022-11-21T13:04:27.876Z,58.40
2022-11-21T13:07:00.850Z,53.60
2022-11-21T13:09:38.257Z,55.00
2022-11-21T13:12:14.840Z,53.60
2022-11-21T13:14:53.491Z,51.00
2022-11-21T13:17:50.921Z,50.60
2022-11-21T13:20:32.480Z,59.30
2022-11-21T13:23:06.705Z,46.90
2022-11-21T13:25:48.919Z,47.60
2022-11-21T13:28:37.753Z,51.00
2022-11-21T13:31:30.391Z,49.80
2022-11-21T13:34:04.205Z,53.00
2022-11-21T13:36:40.422Z,57.70
2022-11-21T13:39:29.500Z,47.20
2022-11-21T13:42:24.695Z,60.70
2022-11-21T13:44:56.097Z,48.10
2022-11-21T13:48:02.145Z,59.30
2022-11-21T13:50:59.028Z,50.70
2022-11-21T13:53:58.207Z,45.80
2022-11-21T13:56:43.156Z,53.10
2022-11-21T13:59:30.522Z,56.90
2022-11-21T14:02:20.828Z,59.30
2022-11-21T14:05:06.198Z,55.10
2022-11-21T14:07:40.514Z,51.20
2022-11-21T14:10:32.067Z,53.70
2022-11-21T14:13:05.672Z,50.70
2022-11-21T14:15:44.445Z,54.70
2022-11-21T14:18:23.713Z,62.20
2022-11-21T14:20:58.346Z,71.20
2022-11-21T14:23:32.145Z,57.30
2022-11-21T14:26:06.552Z,74.00
2022-11-21T14:28:39.556Z,56.60
2022-11-21T14:31:12.419Z,52.20
2022-11-21T14:33:44.948Z,52.80
2022-11-21T14:36:19.680Z,50.50
2022-11-21T14:39:13.885Z,57.00
2022-11-21T14:41:49.345Z,63.90
2022-11-21T14:44:22.626Z,51.90
2022-11-21T14:47:09.989Z,71.90
2022-11-21T14:49:49.638Z,65.00
2022-11-21T14:52:26.455Z,61.00
2022-11-21T14:55:29.799Z,62.30
2022-11-21T14:57:52.214Z,76.30
2022-11-21T15:03:22.474Z,67.60
2022-11-21T15:06:05.813Z,85.20
2022-11-21T15:09:18.303Z,82.30
2022-11-21T15:11:39.693Z,81.10
2022-11-21T15:14:26.030Z,76.50
2022-11-21T15:16:59.154Z,82.70
2022-11-21T15:19:32.664Z,86.20
2022-11-21T15:22:05.454Z,83.20
2022-11-21T15:24:44.778Z,69.30
2022-11-21T15:27:35.009Z,89.30
2022-11-21T15:30:21.231Z,87.60
2022-11-21T15:33:10.343Z,62.20
2022-11-21T15:35:58.199Z,79.60
2022-11-21T15:38:34.665Z,80.60
2022-11-21T15:41:27.401Z,86.70
2022-11-21T15:44:20.161Z,79.90
2022-11-21T15:46:53.984Z,83.20
2022-11-21T15:49:32.915Z,82.80
2022-11-21T15:52:16.378Z,74.60
2022-11-21T15:54:48.419Z,71.50
2022-11-21T15:59:53.200Z,79.00
2022-11-21T16:02:24.247Z,89.90
2022-11-21T16:04:55.367Z,71.00
2022-11-21T16:07:26.341Z,83.80
2022-11-21T16:09:57.797Z,86.20
2022-11-21T16:12:28.860Z,88.10
2022-11-21T16:14:59.898Z,79.60
2022-11-21T16:17:31.376Z,76.70
2022-11-21T16:20:02.595Z,81.50
2022-11-21T16:22:34.027Z,89.40
2022-11-21T16:25:05.485Z,88.80
2022-11-21T16:27:36.491Z,81.10
2022-11-21T16:30:09.614Z,80.60
2022-11-21T16:32:40.714Z,80.00
2022-11-21T16:35:12.463Z,84.40
2022-11-21T16:37:43.442Z,80.70
2022-11-21T16:40:15.073Z,83.70
2022-11-21T16:42:47.013Z,75.80
2022-11-21T16:45:18.574Z,88.40
2022-11-21T16:47:49.837Z,89.50
2022-11-21T16:50:22.218Z,61.90
2022-11-21T16:52:53.251Z,75.20
2022-11-21T16:55:24.804Z,73.20
2022-11-21T16:57:58.017Z,79.20
2022-11-21T17:00:30.573Z,81.50
2022-11-21T17:03:02.003Z,87.70
2022-11-21T17:05:33.287Z,79.30
2022-11-21T17:08:04.386Z,80.00
2022-11-21T17:10:35.582Z,61.10
2022-11-21T17:13:06.783Z,83.10
2022-11-21T17:15:37.937Z,76.10
2022-11-21T17:18:09.092Z,82.80
2022-11-21T17:20:40.202Z,82.20
2022-11-21T17:23:11.486Z,71.60
2022-11-21T17:25:42.457Z,80.90
2022-11-21T17:28:13.624Z,77.70
2022-11-21T17:30:44.740Z,74.40
2022-11-21T17:33:15.900Z,72.10
2022-11-21T17:35:47.013Z,81.50
2022-11-21T17:38:18.597Z,79.20
2022-11-21T17:40:59.726Z,76.00
2022-11-21T17:43:31.382Z,87.10
2022-11-21T17:46:09.294Z,75.50
2022-11-21T17:48:42.357Z,72.00
2022-11-21T17:51:19.414Z,76.80
2022-11-21T17:53:52.772Z,72.60
2022-11-21T17:56:26.623Z,73.10
2022-11-21T17:58:59.284Z,75.90
2022-11-21T18:01:33.671Z,72.70
2022-11-21T18:04:11.844Z,69.40
2022-11-21T18:06:45.073Z,77.60
2022-11-21T18:09:39.642Z,72.20
2022-11-21T18:12:15.299Z,67.10
2022-11-21T18:14:47.549Z,84.60
2022-11-21T18:17:18.833Z,74.00
2022-11-21T18:19:52.097Z,73.80
2022-11-21T18:22:29.223Z,78.30
2022-11-21T18:25:00.953Z,78.20
2022-11-21T18:27:33.757Z,71.90
2022-11-21T18:30:23.278Z,58.60
2022-11-21T18:33:22.106Z,66.90
2022-11-21T18:36:42.759Z,87.60
2022-11-21T18:43:40.602Z,68.20
2022-11-21T18:47:20.601Z,78.20
2022-11-21T18:49:08.857Z,77.80
2022-11-21T18:51:40.191Z,74.70
2022-11-21T18:54:15.314Z,71.10
2022-11-21T18:56:47.352Z,70.30
2022-11-21T18:59:19.829Z,67.90
2022-11-21T19:01:53.334Z,69.10
2022-11-21T19:04:28.710Z,63.80
2022-11-21T19:09:32.827Z,64.70
2022-11-21T19:12:04.510Z,67.90
2022-11-21T19:14:35.941Z,64.60
2022-11-21T19:17:09.884Z,65.10
2022-11-21T19:19:41.475Z,63.40
2022-11-21T19:22:13.734Z,62.40
2022-11-21T19:24:45.230Z,64.50
2022-11-21T19:27:16.438Z,67.70
2022-11-21T19:29:52.249Z,68.90
2022-11-21T19:32:24.093Z,65.80
2022-11-21T19:34:58.850Z,45.50
2022-11-21T19:37:32.400Z,71.70
2022-11-21T19:40:03.681Z,67.60
2022-11-21T19:42:35.100Z,58.70
2022-11-21T19:45:07.149Z,66.10
2022-11-21T19:47:38.618Z,61.80
2022-11-21T19:50:12.666Z,67.80
2022-11-21T19:52:43.866Z,69.70
2022-11-21T19:55:14.844Z,63.90
2022-11-21T19:57:46.101Z,60.60
2022-11-21T20:00:22.316Z,68.00
2022-11-21T20:02:53.612Z,64.00
2022-11-21T20:05:24.770Z,61.20
2022-11-21T20:08:01.663Z,62.70
2022-11-21T20:10:36.462Z,58.20
2022-11-21T20:13:07.757Z,66.00
2022-11-21T20:15:41.693Z,63.30
2022-11-21T20:18:21.215Z,64.50
2022-11-21T20:20:52.502Z,66.70
2022-11-21T20:23:23.681Z,62.60
2022-11-21T20:25:55.101Z,61.70
2022-11-21T20:28:26.226Z,65.60
2022-11-21T20:31:03.801Z,65.30
2022-11-21T20:33:38.935Z,59.90
2022-11-21T20:36:12.336Z,59.80
2022-11-21T20:38:43.680Z,62.70
2022-11-21T20:41:14.811Z,68.90
2022-11-21T20:44:27.376Z,70.60
2022-11-21T20:46:37.253Z,62.20
2022-11-21T20:49:08.428Z,66.80
2022-11-21T20:54:31.016Z,65.00
2022-11-21T20:57:02.383Z,68.90
2022-11-21T20:59:33.564Z,72.70
2022-11-21T21:02:04.937Z,74.20
2022-11-21T21:04:36.345Z,70.40
2022-11-21T21:07:10.383Z,67.30
2022-11-21T21:09:41.815Z,64.10
2022-11-21T21:12:13.389Z,70.30
2022-11-21T21:14:45.711Z,70.10
2022-11-21T21:17:16.999Z,72.00
2022-11-21T21:19:48.267Z,57.50
2022-11-21T21:22:19.537Z,65.30
2022-11-21T21:24:50.907Z,69.80
2022-11-21T21:27:22.176Z,71.80
2022-11-21T21:29:53.575Z,73.40
2022-11-21T21:32:24.984Z,43.20
2022-11-21T21:34:56.380Z,66.20
2022-11-21T21:37:28.017Z,68.10
2022-11-21T21:39:59.066Z,68.30
2022-11-21T21:42:30.332Z,67.90
2022-11-21T21:45:02.638Z,66.70
2022-11-21T21:47:33.701Z,61.20
2022-11-21T21:50:15.528Z,62.60
2022-11-21T21:52:47.111Z,66.60
2022-11-21T21:55:20.579Z,63.80
2022-11-21T21:57:54.192Z,60.30
2022-11-21T22:00:30.554Z,67.80
2022-11-21T22:03:08.688Z,65.50
2022-11-21T22:05:39.906Z,68.40
2022-11-21T22:08:14.241Z,65.80
2022-11-21T22:10:45.347Z,62.50
2022-11-21T22:13:17.434Z,71.40
2022-11-21T22:15:48.942Z,65.80
2022-11-21T22:18:22.634Z,64.90
2022-11-21T22:20:53.911Z,68.00
2022-11-21T22:23:25.635Z,61.10
2022-11-21T22:26:00.030Z,61.10
2022-11-21T22:28:31.443Z,68.90
2022-11-21T22:31:02.659Z,63.30
2022-11-21T22:33:34.503Z,68.00
2022-11-21T22:36:08.302Z,64.90
2022-11-21T22:38:39.592Z,66.10
2022-11-21T22:41:16.594Z,67.00
2022-11-21T22:43:52.978Z,66.80
2022-11-21T22:46:25.228Z,62.30
2022-11-21T22:48:56.518Z,68.90
2022-11-21T22:51:29.536Z,70.00
2022-11-21T22:54:01.071Z,66.50
2022-11-21T22:56:32.446Z,64.00
2022-11-21T22:59:03.747Z,64.20
2022-11-21T23:01:35.262Z,61.80
2022-11-21T23:04:06.475Z,68.60
2022-11-21T23:06:37.429Z,68.10
2022-11-21T23:09:08.409Z,64.00
2022-11-21T23:11:41.154Z,65.20
2022-11-21T23:14:12.259Z,63.20
2022-11-21T23:16:43.237Z,65.60
2022-11-21T23:19:14.122Z,57.90
2022-11-21T23:21:45.120Z,59.50
2022-11-21T23:24:16.096Z,57.40
2022-11-21T23:26:46.987Z,66.80
2022-11-21T23:29:19.011Z,67.50
2022-11-21T23:31:49.899Z,57.70
2022-11-21T23:34:22.734Z,61.20
2022-11-21T23:36:53.689Z,52.70
2022-11-21T23:39:24.656Z,60.50
2022-11-21T23:41:55.766Z,63.50
2022-11-21T23:44:26.691Z,66.70
2022-11-21T23:46:57.819Z,62.40
2022-11-21T23:49:28.901Z,59.30
2022-11-21T23:51:59.985Z,58.20
2022-11-21T23:54:30.917Z,57.10
2022-11-21T23:57:01.895Z,59.40
2022-11-21T23:59:32.829Z,63.00
